Accueil
METAR-TAF:

METAR-TAF

Aéroports :

Illesheim, Allemagne

latitude: 49-28N, longitude: 010-23E, altitude: 325 m

Observation

Le bulletin a été fait il y a 2 heures et 19 minutes, à 11:56 UTC
Vent 6 kt de est
Température 23°C
Humidité 36%
Pression 1021 hPa
Visibilité 10 km ou plus
Ciel clair

METAR: ETIK 011156Z AUTO 09006KT 9999 CLR 23/07 A3015 RMK AO2 SLP205 T02290074 10229 20122 57009 FZRANO

Heure: 16:15 (14:15 UTC)


TAF: absent

Observations et prévisions météorologiques de plus de 4000 aéroports (messages METAR et TAF).

Les stations disponibles sont représentées par des disques jaunes et rouges sur la carte.

Passer la souris dessus pour voir le nom de la station.

Cliquer dessus pour voir les observations et prévisions météorologiques.

Pour changer de carte: cliquez sur les boutons verts avec une croix noire pour zoomer, sur le bouton vert avec un tiret pour effectuer un zoom arrière, ou sur les flèches vertes pour les cartes adjacentes.


METAR-TAF: